createdAt,value
2023-08-17T00:01:45.011Z,78.35
2023-08-17T00:04:15.997Z,78.38
2023-08-17T00:06:48.095Z,78.41
2023-08-17T00:09:19.079Z,78.43
2023-08-17T00:11:49.793Z,78.43
2023-08-17T00:14:20.496Z,78.24
2023-08-17T00:16:53.146Z,78.12
2023-08-17T00:19:24.490Z,78.15
2023-08-17T00:21:56.452Z,78.29
2023-08-17T00:24:27.170Z,78.05
2023-08-17T00:26:58.035Z,77.77
2023-08-17T00:29:28.787Z,77.69
2023-08-17T00:31:59.863Z,77.72
2023-08-17T00:34:30.812Z,77.64
2023-08-17T00:37:01.758Z,77.47
2023-08-17T00:39:32.693Z,77.58
2023-08-17T00:42:03.365Z,77.42
2023-08-17T00:44:34.104Z,77.44
2023-08-17T00:47:05.858Z,77.36
2023-08-17T00:49:37.847Z,77.44
2023-08-17T00:52:09.678Z,77.67
2023-08-17T00:54:41.450Z,77.40
2023-08-17T00:57:12.424Z,77.41
2023-08-17T00:59:47.169Z,77.39
2023-08-17T01:02:23.645Z,77.75
2023-08-17T01:04:54.516Z,78.19
2023-08-17T01:07:25.807Z,78.43
2023-08-17T01:09:56.808Z,78.96
2023-08-17T01:12:31.663Z,79.50
2023-08-17T01:15:23.250Z,79.82
2023-08-17T01:17:58.797Z,80.44
2023-08-17T01:20:32.542Z,80.78
2023-08-17T01:23:08.496Z,81.30
2023-08-17T01:25:39.654Z,81.56
2023-08-17T01:28:10.529Z,81.78
2023-08-17T01:30:47.145Z,82.34
2023-08-17T01:33:23.257Z,82.68
2023-08-17T01:36:03.630Z,82.68
2023-08-17T01:38:35.255Z,83.00
2023-08-17T01:41:09.232Z,83.27
2023-08-17T01:43:40.586Z,83.29
2023-08-17T01:46:12.020Z,83.98
2023-08-17T01:48:43.308Z,84.42
2023-08-17T01:51:19.206Z,84.55
2023-08-17T01:53:50.322Z,84.80
2023-08-17T01:56:21.171Z,85.06
2023-08-17T01:58:51.816Z,85.24
2023-08-17T02:01:22.660Z,85.42
2023-08-17T02:03:54.110Z,85.84
2023-08-17T02:06:25.530Z,85.73
2023-08-17T02:08:56.381Z,85.93
2023-08-17T02:11:28.135Z,86.27
2023-08-17T02:13:58.847Z,86.19
2023-08-17T02:16:29.983Z,85.98
2023-08-17T02:19:00.536Z,86.49
2023-08-17T02:21:31.311Z,86.87
2023-08-17T02:24:02.266Z,86.82
2023-08-17T02:26:33.310Z,88.07
2023-08-17T02:29:04.399Z,89.82
2023-08-17T02:31:35.742Z,90.95
2023-08-17T02:34:07.150Z,91.76
2023-08-17T02:36:37.782Z,92.91
2023-08-17T02:39:09.178Z,93.39
2023-08-17T02:41:40.350Z,95.23
2023-08-17T02:44:11.520Z,95.72
2023-08-17T02:46:42.116Z,96.90
2023-08-17T02:49:13.038Z,97.30
2023-08-17T02:51:44.120Z,97.80
2023-08-17T02:54:14.753Z,97.82
2023-08-17T02:56:45.720Z,98.66
2023-08-17T02:59:16.317Z,98.96
2023-08-17T03:01:47.746Z,99.59
2023-08-17T03:04:18.330Z,99.94
2023-08-17T03:06:49.279Z,100.00
2023-08-17T03:09:19.759Z,100.00
2023-08-17T03:11:50.706Z,100.00
2023-08-17T03:14:21.680Z,100.00
2023-08-17T03:16:52.921Z,100.00
2023-08-17T03:19:23.491Z,100.00
2023-08-17T03:21:54.856Z,100.00
2023-08-17T03:24:25.777Z,100.00
2023-08-17T03:26:56.855Z,100.00
2023-08-17T03:29:28.181Z,100.00
2023-08-17T03:31:58.903Z,100.00
2023-08-17T03:34:29.844Z,100.00
2023-08-17T03:37:01.125Z,100.00
2023-08-17T03:39:31.992Z,100.00
2023-08-17T03:42:03.248Z,100.00
2023-08-17T03:44:34.165Z,100.00
2023-08-17T03:47:04.841Z,100.00
2023-08-17T03:49:35.711Z,100.00
2023-08-17T03:52:07.377Z,100.00
2023-08-17T03:54:38.148Z,100.00
2023-08-17T03:57:09.316Z,99.94
2023-08-17T03:59:39.995Z,99.94
2023-08-17T04:02:10.900Z,99.85
2023-08-17T04:04:41.579Z,99.78
2023-08-17T04:07:12.949Z,99.51
2023-08-17T04:09:47.246Z,99.67
2023-08-17T04:12:17.856Z,99.47
2023-08-17T04:14:48.919Z,99.44
2023-08-17T04:17:19.935Z,99.35
2023-08-17T04:19:51.138Z,99.23
2023-08-17T04:22:21.776Z,99.20
2023-08-17T04:24:52.723Z,99.41
2023-08-17T04:27:23.737Z,99.14
2023-08-17T04:29:54.942Z,98.96
2023-08-17T04:32:25.703Z,99.00
2023-08-17T04:34:56.602Z,99.01
2023-08-17T04:37:28.278Z,98.94
2023-08-17T04:39:59.706Z,98.91
2023-08-17T04:42:30.584Z,98.84
2023-08-17T04:45:01.631Z,99.00
2023-08-17T04:47:32.199Z,98.87
2023-08-17T04:50:03.053Z,98.64
2023-08-17T04:52:33.820Z,98.33
2023-08-17T04:55:05.018Z,98.61
2023-08-17T04:57:36.000Z,98.58
2023-08-17T05:00:10.782Z,98.49
2023-08-17T05:02:41.727Z,98.65
2023-08-17T05:05:15.138Z,98.55
2023-08-17T05:07:45.750Z,98.68
2023-08-17T05:10:16.740Z,98.77
2023-08-17T05:12:48.151Z,98.44
2023-08-17T05:15:18.699Z,98.51
2023-08-17T05:17:49.392Z,98.51
2023-08-17T05:20:21.962Z,98.33
2023-08-17T05:22:52.620Z,98.42
2023-08-17T05:25:24.073Z,98.17
2023-08-17T05:27:54.906Z,98.40
2023-08-17T05:30:25.648Z,98.38
2023-08-17T05:32:56.906Z,98.54
2023-08-17T05:35:27.960Z,98.46
2023-08-17T05:37:59.515Z,98.43
2023-08-17T05:40:31.348Z,98.69
2023-08-17T05:43:02.018Z,98.63
2023-08-17T05:45:32.658Z,98.49
2023-08-17T05:48:03.708Z,98.62
2023-08-17T05:50:34.735Z,98.50
2023-08-17T05:53:05.696Z,98.30
2023-08-17T05:55:36.620Z,98.33
2023-08-17T05:58:07.501Z,98.17
2023-08-17T06:00:38.729Z,98.02
2023-08-17T06:03:10.165Z,97.94
2023-08-17T06:05:41.717Z,97.80
2023-08-17T06:08:12.245Z,97.99
2023-08-17T06:10:43.100Z,97.96
2023-08-17T06:13:14.016Z,97.71
2023-08-17T06:15:44.673Z,97.60
2023-08-17T06:18:15.384Z,97.62
2023-08-17T06:20:47.559Z,97.35
2023-08-17T06:23:18.152Z,97.21
2023-08-17T06:25:48.786Z,97.01
2023-08-17T06:28:20.055Z,96.83
2023-08-17T06:30:53.480Z,96.48
2023-08-17T06:33:25.096Z,96.39
2023-08-17T06:35:55.940Z,96.34
2023-08-17T06:38:26.897Z,96.38
2023-08-17T06:40:57.636Z,96.35
2023-08-17T06:43:28.189Z,96.44
2023-08-17T06:46:01.522Z,95.83
2023-08-17T06:48:33.453Z,95.72
2023-08-17T06:51:05.861Z,95.62
2023-08-17T06:53:37.121Z,95.53
2023-08-17T06:56:08.692Z,95.05
2023-08-17T06:58:39.546Z,95.05
2023-08-17T07:01:10.883Z,94.92
2023-08-17T07:03:41.812Z,94.53
2023-08-17T07:06:13.861Z,94.30
2023-08-17T07:08:44.658Z,94.65
2023-08-17T07:11:15.388Z,94.58
2023-08-17T07:13:46.738Z,94.33
2023-08-17T07:16:17.438Z,94.32
2023-08-17T07:18:48.163Z,93.89
2023-08-17T07:21:18.606Z,93.89
2023-08-17T07:23:49.923Z,93.97
2023-08-17T07:26:21.519Z,94.04
2023-08-17T07:28:52.477Z,93.90
2023-08-17T07:31:23.154Z,93.69
2023-08-17T07:33:53.944Z,93.62
2023-08-17T07:36:24.807Z,93.53
2023-08-17T07:38:55.723Z,93.48
2023-08-17T07:41:27.097Z,93.55
2023-08-17T07:43:58.282Z,93.70
2023-08-17T07:46:28.927Z,93.76
2023-08-17T07:48:59.898Z,93.65
2023-08-17T07:51:31.140Z,93.62
2023-08-17T07:54:02.527Z,93.42
2023-08-17T07:56:33.300Z,93.30
2023-08-17T07:59:04.074Z,93.16
2023-08-17T08:01:35.389Z,93.21
2023-08-17T08:04:06.546Z,93.02
2023-08-17T08:06:37.319Z,92.97
2023-08-17T08:09:08.922Z,92.71
2023-08-17T08:11:39.474Z,92.33
2023-08-17T08:14:10.591Z,92.66
2023-08-17T08:16:41.836Z,92.03
2023-08-17T08:19:12.489Z,91.61
2023-08-17T08:21:43.227Z,91.26
2023-08-17T08:24:22.202Z,90.64
2023-08-17T08:27:01.951Z,91.07
2023-08-17T08:29:32.616Z,91.22
2023-08-17T08:32:04.537Z,91.12
2023-08-17T08:34:35.423Z,90.84
2023-08-17T08:37:06.732Z,90.23
2023-08-17T08:39:52.628Z,90.21
2023-08-17T08:42:24.360Z,90.04
2023-08-17T08:44:55.389Z,89.80
2023-08-17T08:47:28.142Z,89.81
2023-08-17T08:50:03.707Z,89.85
2023-08-17T08:52:37.803Z,89.77
2023-08-17T08:55:14.189Z,89.68
2023-08-17T08:57:51.662Z,89.82
2023-08-17T09:00:23.239Z,90.07
2023-08-17T09:02:54.634Z,89.29
2023-08-17T09:05:26.108Z,89.31
2023-08-17T09:07:58.720Z,89.58
2023-08-17T09:10:31.814Z,89.20
2023-08-17T09:13:03.450Z,88.98
2023-08-17T09:15:34.210Z,89.69
2023-08-17T09:18:07.435Z,89.52
2023-08-17T09:20:47.332Z,89.39
2023-08-17T09:23:21.202Z,89.59
2023-08-17T09:25:58.980Z,89.56
2023-08-17T09:28:32.384Z,89.70
2023-08-17T09:31:04.870Z,90.25
2023-08-17T09:33:36.603Z,89.94
2023-08-17T09:36:07.823Z,89.66
2023-08-17T09:38:39.466Z,89.64
2023-08-17T09:41:10.444Z,89.75
2023-08-17T09:43:41.014Z,90.03
2023-08-17T09:46:13.010Z,90.11
2023-08-17T09:48:45.282Z,89.80
2023-08-17T09:51:18.551Z,87.94
2023-08-17T09:54:00.019Z,87.45
2023-08-17T09:56:31.846Z,87.00
2023-08-17T09:59:02.429Z,87.16
2023-08-17T10:01:33.634Z,87.03
2023-08-17T10:04:06.356Z,86.89
2023-08-17T10:06:41.244Z,87.00
2023-08-17T10:09:17.086Z,87.28
2023-08-17T10:11:53.869Z,87.48
2023-08-17T10:14:31.690Z,88.21
2023-08-17T10:17:11.420Z,88.40
2023-08-17T10:19:53.008Z,88.34
2023-08-17T10:22:30.578Z,88.15
2023-08-17T10:25:02.582Z,88.52
2023-08-17T10:27:34.539Z,88.15
2023-08-17T10:30:09.305Z,88.02
2023-08-17T10:32:42.590Z,87.65
2023-08-17T10:35:13.600Z,87.65
2023-08-17T10:37:44.935Z,87.06
2023-08-17T10:40:16.078Z,88.04
2023-08-17T10:42:55.681Z,88.24
2023-08-17T10:45:37.994Z,88.03
2023-08-17T10:48:30.292Z,88.39
2023-08-17T10:51:06.430Z,87.51
2023-08-17T10:53:44.274Z,87.51
2023-08-17T10:56:18.752Z,87.31
2023-08-17T10:58:53.353Z,87.19
2023-08-17T11:01:38.039Z,87.16
2023-08-17T11:04:18.709Z,87.04
2023-08-17T11:07:02.472Z,86.91
2023-08-17T11:09:33.365Z,87.30
2023-08-17T11:12:06.964Z,86.71
2023-08-17T11:14:38.116Z,86.73
2023-08-17T11:17:11.465Z,86.49
2023-08-17T11:19:45.584Z,87.21
2023-08-17T11:22:17.926Z,86.73
2023-08-17T11:24:52.077Z,86.32
2023-08-17T11:27:24.125Z,86.26
2023-08-17T11:29:55.670Z,86.45
2023-08-17T11:32:26.964Z,86.57
2023-08-17T11:34:59.627Z,86.30
2023-08-17T11:37:30.693Z,86.21
2023-08-17T11:40:01.432Z,86.14
2023-08-17T11:42:32.546Z,85.53
2023-08-17T11:45:03.962Z,85.09
2023-08-17T11:47:35.104Z,84.43
2023-08-17T11:50:19.164Z,84.70
2023-08-17T11:52:51.579Z,84.04
2023-08-17T11:55:22.618Z,83.51
2023-08-17T11:57:53.563Z,83.20
2023-08-17T12:00:26.706Z,83.37
2023-08-17T12:02:57.755Z,82.52
2023-08-17T12:05:30.274Z,82.05
2023-08-17T12:08:01.732Z,81.44
2023-08-17T12:10:33.029Z,81.42
2023-08-17T12:13:04.038Z,81.00
2023-08-17T12:15:36.698Z,80.95
2023-08-17T12:18:08.536Z,81.71
2023-08-17T12:20:39.456Z,81.72
2023-08-17T12:23:10.170Z,81.53
2023-08-17T12:25:40.915Z,81.74
2023-08-17T12:28:14.531Z,82.23
2023-08-17T12:30:45.667Z,82.83
2023-08-17T12:33:17.279Z,83.22
2023-08-17T12:35:48.481Z,83.47
2023-08-17T12:38:19.034Z,84.27
2023-08-17T12:40:49.811Z,84.24
2023-08-17T12:43:20.646Z,84.54
2023-08-17T12:45:52.382Z,84.88
2023-08-17T12:48:22.934Z,85.42
2023-08-17T12:50:53.717Z,85.61
2023-08-17T12:53:24.314Z,86.00
2023-08-17T12:55:56.442Z,86.23
2023-08-17T12:58:27.217Z,86.58
2023-08-17T13:00:58.657Z,86.88
2023-08-17T13:03:29.779Z,86.96
2023-08-17T13:06:00.385Z,87.35
2023-08-17T13:08:31.765Z,87.48
2023-08-17T13:11:02.333Z,87.72
2023-08-17T13:13:32.973Z,88.15
2023-08-17T13:16:05.376Z,88.55
2023-08-17T13:18:37.559Z,88.98
2023-08-17T13:21:09.087Z,88.34
2023-08-17T13:23:40.950Z,88.37
2023-08-17T13:26:11.930Z,88.50
2023-08-17T13:28:43.130Z,88.67
2023-08-17T13:31:23.963Z,88.67
2023-08-17T13:33:55.866Z,88.62
2023-08-17T13:36:27.150Z,88.69
2023-08-17T13:38:58.368Z,88.93
2023-08-17T13:41:29.492Z,89.11
2023-08-17T13:44:02.064Z,89.08
2023-08-17T13:46:32.792Z,88.57
2023-08-17T13:49:03.821Z,87.72
2023-08-17T13:51:34.555Z,87.13
2023-08-17T13:54:05.811Z,86.63
2023-08-17T13:56:36.816Z,86.70
2023-08-17T13:59:07.883Z,86.33
2023-08-17T14:01:39.026Z,86.56
2023-08-17T14:04:12.680Z,87.07
2023-08-17T14:06:43.913Z,87.51
2023-08-17T14:09:14.763Z,87.42
2023-08-17T14:11:45.691Z,87.18
2023-08-17T14:14:16.963Z,87.62
2023-08-17T14:16:47.640Z,87.83
2023-08-17T14:19:18.834Z,88.35
2023-08-17T14:21:49.526Z,88.29
2023-08-17T14:24:20.293Z,88.37
2023-08-17T14:26:51.407Z,88.56
2023-08-17T14:29:22.171Z,88.65
2023-08-17T14:31:56.050Z,88.70
2023-08-17T14:34:27.827Z,88.85
2023-08-17T14:36:58.577Z,88.96
2023-08-17T14:39:29.526Z,88.56
2023-08-17T14:42:00.575Z,89.20
2023-08-17T14:44:31.848Z,90.07
2023-08-17T14:47:02.767Z,90.03
2023-08-17T14:49:33.254Z,90.28
2023-08-17T14:52:04.644Z,90.42
2023-08-17T14:54:35.224Z,90.86
2023-08-17T14:57:06.777Z,91.43
2023-08-17T14:59:38.176Z,91.37
2023-08-17T15:02:10.573Z,90.85
2023-08-17T15:04:41.913Z,91.28
2023-08-17T15:07:12.665Z,91.33
2023-08-17T15:09:43.341Z,90.97
2023-08-17T15:12:13.997Z,90.57
2023-08-17T15:14:44.863Z,90.69
2023-08-17T15:17:15.937Z,90.89
2023-08-17T15:19:46.520Z,90.89
2023-08-17T15:22:17.595Z,90.91
2023-08-17T15:24:48.444Z,90.80
2023-08-17T15:27:20.003Z,90.62
2023-08-17T15:29:51.269Z,90.81
2023-08-17T15:32:22.469Z,91.35
2023-08-17T15:34:54.921Z,91.53
2023-08-17T15:37:29.870Z,91.94
2023-08-17T15:40:01.286Z,91.92
2023-08-17T15:42:31.861Z,91.83
2023-08-17T15:45:02.681Z,91.93
2023-08-17T15:47:34.031Z,91.82
2023-08-17T15:50:05.678Z,92.01
2023-08-17T15:52:36.297Z,92.37
2023-08-17T15:55:08.828Z,92.28
2023-08-17T15:57:40.031Z,92.18
2023-08-17T16:00:13.028Z,92.44
2023-08-17T16:02:44.204Z,92.73
2023-08-17T16:05:15.405Z,92.35
2023-08-17T16:07:46.394Z,92.04
2023-08-17T16:10:17.024Z,91.92
2023-08-17T16:12:47.811Z,91.76
2023-08-17T16:15:19.258Z,91.27
2023-08-17T16:17:50.264Z,91.72
2023-08-17T16:20:21.056Z,91.51
2023-08-17T16:22:52.724Z,91.70
2023-08-17T16:25:29.837Z,91.81
2023-08-17T16:27:59.268Z,91.14
2023-08-17T16:30:29.871Z,91.78
2023-08-17T16:33:00.458Z,92.08
2023-08-17T16:35:31.537Z,92.14
2023-08-17T16:38:02.614Z,92.14
2023-08-17T16:40:38.173Z,92.44
2023-08-17T16:43:09.804Z,92.46
2023-08-17T16:45:42.018Z,92.17
2023-08-17T16:48:12.745Z,92.31
2023-08-17T16:50:43.608Z,92.84
2023-08-17T16:53:14.562Z,92.75
2023-08-17T16:55:48.649Z,92.66
2023-08-17T16:58:25.626Z,92.93
2023-08-17T17:00:56.892Z,92.90
2023-08-17T17:03:28.281Z,92.96
2023-08-17T17:05:59.408Z,93.16
2023-08-17T17:08:46.934Z,92.93
2023-08-17T17:11:17.541Z,92.90
2023-08-17T17:13:48.693Z,92.32
2023-08-17T17:16:21.272Z,92.65
2023-08-17T17:18:52.636Z,92.67
2023-08-17T17:21:24.299Z,92.77
2023-08-17T17:23:54.924Z,92.61
2023-08-17T17:26:26.219Z,92.70
2023-08-17T17:28:57.047Z,92.85
2023-08-17T17:31:28.320Z,92.97
2023-08-17T17:33:58.988Z,93.47
2023-08-17T17:36:29.931Z,93.65
2023-08-17T17:39:01.230Z,93.81
2023-08-17T17:41:31.989Z,94.05
2023-08-17T17:44:03.254Z,93.92
2023-08-17T17:46:35.045Z,94.05
2023-08-17T17:49:07.405Z,94.34
2023-08-17T17:51:38.224Z,94.13
2023-08-17T17:54:09.566Z,94.26
2023-08-17T17:56:44.164Z,93.73
2023-08-17T17:59:15.386Z,93.93
2023-08-17T18:01:45.998Z,93.80
2023-08-17T18:04:16.762Z,93.90
2023-08-17T18:06:47.496Z,93.72
2023-08-17T18:09:17.933Z,93.54
2023-08-17T18:11:48.370Z,93.66
2023-08-17T18:14:20.499Z,93.77
2023-08-17T18:16:51.153Z,94.01
2023-08-17T18:19:21.788Z,93.87
2023-08-17T18:21:52.540Z,93.80
2023-08-17T18:24:23.164Z,94.04
2023-08-17T18:26:54.690Z,94.00
2023-08-17T18:29:25.778Z,94.23
2023-08-17T18:31:56.443Z,94.28
2023-08-17T18:34:27.198Z,94.39
2023-08-17T18:36:57.838Z,94.56
2023-08-17T18:39:28.586Z,94.68
2023-08-17T18:41:59.200Z,94.88
2023-08-17T18:44:30.096Z,94.85
2023-08-17T18:47:00.710Z,94.89
2023-08-17T18:49:31.560Z,94.92
2023-08-17T18:52:02.835Z,94.76
2023-08-17T18:54:37.641Z,94.57
2023-08-17T18:57:08.514Z,94.61
2023-08-17T18:59:39.565Z,94.56
2023-08-17T19:02:10.646Z,94.60
2023-08-17T19:04:41.529Z,94.62
2023-08-17T19:07:12.137Z,94.42
2023-08-17T19:09:47.070Z,94.68
2023-08-17T19:12:19.289Z,94.59
2023-08-17T19:14:50.184Z,94.81
2023-08-17T19:17:21.842Z,94.71
2023-08-17T19:19:52.776Z,94.48
2023-08-17T19:22:23.635Z,94.54
2023-08-17T19:24:54.193Z,94.33
2023-08-17T19:27:25.086Z,94.64
2023-08-17T19:29:55.581Z,94.77
2023-08-17T19:32:27.025Z,94.96
2023-08-17T19:34:58.555Z,94.81
2023-08-17T19:37:31.945Z,95.09
2023-08-17T19:40:05.020Z,95.33
2023-08-17T19:42:35.794Z,95.57
2023-08-17T19:45:07.190Z,95.90
2023-08-17T19:47:38.180Z,95.69
2023-08-17T19:50:10.835Z,95.70
2023-08-17T19:52:41.572Z,96.07
2023-08-17T19:55:14.188Z,95.76
2023-08-17T19:57:44.662Z,95.59
2023-08-17T20:00:19.245Z,95.70
2023-08-17T20:02:51.758Z,95.79
2023-08-17T20:05:22.349Z,95.83
2023-08-17T20:07:53.057Z,95.83
2023-08-17T20:10:23.851Z,95.84
2023-08-17T20:12:55.528Z,95.82
2023-08-17T20:15:26.948Z,95.65
2023-08-17T20:17:58.047Z,95.72
2023-08-17T20:20:28.794Z,95.58
2023-08-17T20:23:00.321Z,95.64
2023-08-17T20:25:31.286Z,95.63
2023-08-17T20:28:02.443Z,95.56
2023-08-17T20:30:33.465Z,95.37
2023-08-17T20:33:04.554Z,95.62
2023-08-17T20:35:35.720Z,95.60
2023-08-17T20:38:06.733Z,95.75
2023-08-17T20:40:37.466Z,95.52
2023-08-17T20:43:08.345Z,95.76
2023-08-17T20:45:40.921Z,95.43
2023-08-17T20:48:11.943Z,95.34
2023-08-17T20:50:45.190Z,95.32
2023-08-17T20:53:17.141Z,95.41
2023-08-17T20:55:49.113Z,95.52
2023-08-17T20:58:20.104Z,95.13
2023-08-17T21:00:51.311Z,95.19
2023-08-17T21:03:22.328Z,95.32
2023-08-17T21:05:53.482Z,95.53
2023-08-17T21:08:23.986Z,95.72
2023-08-17T21:10:55.283Z,96.07
2023-08-17T21:13:26.002Z,96.04
2023-08-17T21:16:06.692Z,96.20
2023-08-17T21:18:37.972Z,96.68
2023-08-17T21:21:09.243Z,96.76
2023-08-17T21:23:39.798Z,96.80
2023-08-17T21:26:10.541Z,96.81
2023-08-17T21:28:41.585Z,96.99
2023-08-17T21:31:12.308Z,97.07
2023-08-17T21:33:42.908Z,97.47
2023-08-17T21:36:13.850Z,97.36
2023-08-17T21:38:44.896Z,97.73
2023-08-17T21:41:16.186Z,97.84
2023-08-17T21:43:47.198Z,97.68
2023-08-17T21:46:18.265Z,97.91
2023-08-17T21:48:49.280Z,98.11
2023-08-17T21:51:20.666Z,97.95
2023-08-17T21:53:51.199Z,98.04
2023-08-17T21:56:21.857Z,98.32
2023-08-17T21:58:53.084Z,98.32
2023-08-17T22:01:24.534Z,98.40
2023-08-17T22:03:55.207Z,98.63
2023-08-17T22:06:26.249Z,98.49
2023-08-17T22:08:57.071Z,98.11
2023-08-17T22:11:28.057Z,97.94
2023-08-17T22:13:58.914Z,98.29
2023-08-17T22:16:29.954Z,98.40
2023-08-17T22:19:01.120Z,98.33
2023-08-17T22:21:32.855Z,98.60
2023-08-17T22:24:03.417Z,98.51
2023-08-17T22:26:34.525Z,98.38
2023-08-17T22:29:05.540Z,98.53
2023-08-17T22:31:36.488Z,98.49
2023-08-17T22:34:07.354Z,98.78
2023-08-17T22:36:37.915Z,98.83
2023-08-17T22:39:09.283Z,99.12
2023-08-17T22:41:40.249Z,98.93
2023-08-17T22:44:10.836Z,98.62
2023-08-17T22:46:41.957Z,98.53
2023-08-17T22:49:12.955Z,98.40
2023-08-17T22:51:43.563Z,98.50
2023-08-17T22:54:14.191Z,98.10
2023-08-17T22:56:45.746Z,97.85
2023-08-17T22:59:16.373Z,97.54
2023-08-17T23:01:47.588Z,96.75
2023-08-17T23:04:19.767Z,96.83
2023-08-17T23:06:51.044Z,96.89
2023-08-17T23:09:21.645Z,97.07
2023-08-17T23:11:52.288Z,96.89
2023-08-17T23:14:23.814Z,97.10
2023-08-17T23:16:55.271Z,97.56
2023-08-17T23:19:26.060Z,97.66
2023-08-17T23:21:57.302Z,97.89
2023-08-17T23:24:27.994Z,98.22
2023-08-17T23:26:59.817Z,98.17
2023-08-17T23:29:31.150Z,98.38
2023-08-17T23:32:09.295Z,98.19
2023-08-17T23:34:51.744Z,97.88
2023-08-17T23:37:22.418Z,97.58
2023-08-17T23:39:53.134Z,97.64
2023-08-17T23:42:23.798Z,97.58
2023-08-17T23:44:54.632Z,97.00
2023-08-17T23:47:25.569Z,97.22
2023-08-17T23:49:56.326Z,97.17
2023-08-17T23:52:27.048Z,97.14
2023-08-17T23:54:57.802Z,97.02
2023-08-17T23:57:29.529Z,96.94
